Alamogordo White Sands Regional Airport Alamogordo US
ICAO: KALM
IATA: ALM
Category: Medium
Scheduled Services: Yes

Elevation: 4200 ft
TransAlt. 18000 ft.

Airport Communications:
HOLLOMAN APP:120.6
AWOS 3:127.825
HOLLOMAN DEP:128.1
ALBUQUERQUE RDO:122.15
CTAF/UNICOM:122.8

KALM Zoom In..

If you have problems with the map follow the link
https://www.worldairports.se/pages/airport.php?
ICAO=KALM

Runways:

(A) RW 03 length 7005 ft width 150 ft
---- / hdg 35

(B) RW 16 length 3549 ft width 190 ft
---- / hdg 163

(C) RW 21 length 7005 ft width 150 ft
---- / hdg 215

(D) RW 34 length 3549 ft width 190 ft
---- / hdg 343

Location; KALM
Day. 08 / Time. 18.35 Zulu
* Altimeter: 30.07
* Temperature: 13° c. 55.4°f.
* Wind from: 180° Speed 04 kn.
Dewpoint: 05° c.
Visibility: 10 Statute Miles.
Clouds: Scattered 6000 ft.
Clouds: Overcast 12000 ft.

KALM 081835Z AUTO 18004KT 10SM SCT060 OVC120 13/05 A3007 RMK AO2


Wind From 180°
Speed 04 kn.

 
 
jpsmedia worldairports.se 2019   terms of use